createdAt,value
2022-09-16T00:02:19.436Z,99.90
2022-09-16T00:05:21.816Z,99.90
2022-09-16T00:08:24.004Z,99.90
2022-09-16T00:11:26.017Z,99.90
2022-09-16T00:14:28.116Z,99.90
2022-09-16T00:17:31.675Z,99.90
2022-09-16T00:20:34.808Z,99.90
2022-09-16T00:23:47.140Z,99.90
2022-09-16T00:26:49.269Z,99.90
2022-09-16T00:29:51.548Z,99.90
2022-09-16T00:32:54.090Z,99.90
2022-09-16T00:36:06.926Z,99.90
2022-09-16T00:39:09.062Z,99.90
2022-09-16T00:42:12.240Z,99.90
2022-09-16T00:45:23.460Z,99.90
2022-09-16T00:48:27.771Z,99.90
2022-09-16T00:51:30.077Z,99.90
2022-09-16T00:54:34.540Z,99.90
2022-09-16T00:57:39.461Z,99.90
2022-09-16T01:00:42.010Z,99.90
2022-09-16T01:03:51.886Z,99.90
2022-09-16T01:06:54.566Z,99.90
2022-09-16T01:09:57.004Z,99.90
2022-09-16T01:13:05.756Z,99.90
2022-09-16T01:16:35.699Z,99.90
2022-09-16T01:20:16.499Z,99.90
2022-09-16T01:23:58.331Z,99.90
2022-09-16T01:27:31.765Z,99.90
2022-09-16T01:30:41.099Z,99.90
2022-09-16T01:34:10.635Z,99.90
2022-09-16T01:37:34.220Z,99.90
2022-09-16T01:40:49.908Z,99.90
2022-09-16T01:44:27.454Z,99.90
2022-09-16T01:47:54.444Z,99.90
2022-09-16T01:51:18.072Z,99.90
2022-09-16T01:55:15.205Z,99.90
2022-09-16T01:58:27.017Z,99.90
2022-09-16T02:01:55.886Z,99.90
2022-09-16T02:05:03.218Z,99.90
2022-09-16T02:08:15.076Z,99.90
2022-09-16T02:11:19.346Z,99.90
2022-09-16T02:14:24.299Z,99.90
2022-09-16T02:17:30.341Z,99.90
2022-09-16T02:20:36.400Z,99.90
2022-09-16T02:23:42.767Z,99.90
2022-09-16T02:26:50.180Z,99.90
2022-09-16T02:30:11.367Z,99.90
2022-09-16T02:33:14.895Z,99.90
2022-09-16T02:36:23.707Z,99.90
2022-09-16T02:39:30.882Z,99.90
2022-09-16T02:42:34.668Z,99.90
2022-09-16T02:45:47.314Z,99.90
2022-09-16T02:49:05.982Z,99.90
2022-09-16T02:52:16.638Z,99.90
2022-09-16T02:55:51.347Z,99.90
2022-09-16T02:58:56.316Z,99.90
2022-09-16T03:02:01.259Z,99.90
2022-09-16T03:05:04.004Z,99.90
2022-09-16T03:08:07.419Z,99.90
2022-09-16T03:11:36.247Z,99.90
2022-09-16T03:15:17.400Z,99.90
2022-09-16T03:18:38.116Z,99.90
2022-09-16T03:21:55.221Z,99.90
2022-09-16T03:24:57.455Z,99.90
2022-09-16T03:28:10.980Z,99.90
2022-09-16T03:31:26.679Z,99.90
2022-09-16T03:34:46.559Z,99.90
2022-09-16T03:37:50.008Z,99.90
2022-09-16T03:40:53.201Z,99.90
2022-09-16T03:44:01.449Z,99.90
2022-09-16T03:47:09.163Z,99.90
2022-09-16T03:50:11.264Z,99.90
2022-09-16T03:53:13.328Z,99.90
2022-09-16T03:56:15.302Z,99.90
2022-09-16T03:59:17.795Z,99.90
2022-09-16T04:02:20.124Z,99.90
2022-09-16T04:05:22.247Z,99.90
2022-09-16T04:08:26.991Z,99.90
2022-09-16T04:11:32.339Z,99.90
2022-09-16T04:14:35.197Z,99.90
2022-09-16T04:17:37.385Z,99.90
2022-09-16T04:20:40.986Z,99.90
2022-09-16T04:23:43.160Z,99.90
2022-09-16T04:26:46.203Z,99.90
2022-09-16T04:29:48.854Z,99.90
2022-09-16T04:32:54.672Z,99.90
2022-09-16T04:36:21.117Z,99.90
2022-09-16T04:39:23.091Z,99.90
2022-09-16T04:42:25.225Z,99.90
2022-09-16T04:45:27.564Z,99.90
2022-09-16T04:48:30.577Z,99.90
2022-09-16T04:51:33.554Z,99.90
2022-09-16T04:54:35.620Z,99.90
2022-09-16T04:57:37.727Z,99.90
2022-09-16T05:00:39.876Z,99.90
2022-09-16T05:03:47.473Z,99.90
2022-09-16T05:06:49.574Z,99.90
2022-09-16T05:09:52.916Z,99.90
2022-09-16T05:12:55.364Z,99.90
2022-09-16T05:16:09.385Z,99.90
2022-09-16T05:19:13.308Z,99.90
2022-09-16T05:22:15.319Z,99.90
2022-09-16T05:25:22.029Z,99.90
2022-09-16T05:28:25.139Z,99.90
2022-09-16T05:31:30.551Z,99.90
2022-09-16T05:34:36.240Z,99.90
2022-09-16T05:37:38.296Z,99.90
2022-09-16T05:40:40.494Z,99.90
2022-09-16T05:43:43.764Z,99.90
2022-09-16T05:46:45.997Z,99.90
2022-09-16T05:49:48.043Z,99.90
2022-09-16T05:52:50.619Z,99.90
2022-09-16T05:56:02.305Z,99.90
2022-09-16T05:59:12.235Z,99.90
2022-09-16T06:02:14.288Z,99.90
2022-09-16T06:05:16.867Z,99.90
2022-09-16T06:08:19.061Z,99.90
2022-09-16T06:11:22.185Z,99.90
2022-09-16T06:14:24.413Z,99.90
2022-09-16T06:17:27.498Z,99.90
2022-09-16T06:20:29.551Z,99.90
2022-09-16T06:23:31.968Z,99.90
2022-09-16T06:26:33.991Z,99.90
2022-09-16T06:29:36.055Z,99.90
2022-09-16T06:32:38.252Z,99.90
2022-09-16T06:35:40.307Z,99.90
2022-09-16T06:38:42.707Z,99.90
2022-09-16T06:41:46.089Z,99.90
2022-09-16T06:44:48.146Z,99.90
2022-09-16T06:47:50.206Z,99.90
2022-09-16T06:50:59.346Z,99.90
2022-09-16T06:54:07.397Z,99.90
2022-09-16T06:57:12.299Z,99.90
2022-09-16T07:00:15.219Z,99.90
2022-09-16T07:03:17.773Z,99.90
2022-09-16T07:06:21.473Z,99.90
2022-09-16T07:09:24.194Z,99.90
2022-09-16T07:12:26.566Z,99.90
2022-09-16T07:15:28.684Z,99.90
2022-09-16T07:18:32.415Z,99.90
2022-09-16T07:21:34.478Z,99.90
2022-09-16T07:24:36.503Z,99.90
2022-09-16T07:27:38.641Z,99.60
2022-09-16T07:30:41.401Z,98.70
2022-09-16T07:33:46.226Z,97.80
2022-09-16T07:36:50.039Z,97.40
2022-09-16T07:39:52.230Z,96.10
2022-09-16T07:42:54.399Z,94.40
2022-09-16T07:45:57.947Z,94.20
2022-09-16T07:49:02.309Z,94.20
2022-09-16T07:52:04.327Z,94.80
2022-09-16T07:55:06.639Z,94.30
2022-09-16T07:58:08.631Z,95.60
2022-09-16T08:01:11.352Z,96.40
2022-09-16T08:04:14.484Z,97.10
2022-09-16T08:07:16.692Z,97.60
2022-09-16T08:10:18.779Z,97.80
2022-09-16T08:13:21.151Z,98.30
2022-09-16T08:16:23.564Z,98.40
2022-09-16T08:19:25.837Z,98.40
2022-09-16T08:22:27.959Z,96.20
2022-09-16T08:25:30.022Z,96.40
2022-09-16T08:28:45.129Z,95.30
2022-09-16T08:31:55.668Z,92.70
2022-09-16T08:34:58.606Z,90.40
2022-09-16T08:38:00.885Z,91.20
2022-09-16T08:41:06.106Z,89.40
2022-09-16T08:44:17.146Z,89.70
2022-09-16T08:47:34.269Z,90.30
2022-09-16T08:50:40.426Z,90.80
2022-09-16T08:53:51.207Z,90.30
2022-09-16T08:56:57.902Z,90.30
2022-09-16T09:00:14.346Z,87.10
2022-09-16T09:03:16.356Z,84.00
2022-09-16T09:06:45.056Z,81.10
2022-09-16T09:10:05.962Z,76.50
2022-09-16T09:13:29.216Z,76.20
2022-09-16T09:16:44.779Z,76.20
2022-09-16T09:20:05.225Z,75.80
2022-09-16T09:23:23.645Z,75.00
2022-09-16T09:26:51.656Z,76.30
2022-09-16T09:30:00.414Z,78.40
2022-09-16T09:33:44.376Z,76.50
2022-09-16T09:36:57.140Z,74.70
2022-09-16T09:40:23.650Z,72.90
2022-09-16T09:43:47.333Z,73.20
2022-09-16T09:46:53.233Z,71.50
2022-09-16T09:50:03.510Z,70.90
2022-09-16T09:53:55.895Z,68.80
2022-09-16T09:57:12.689Z,69.20
2022-09-16T10:00:22.161Z,69.60
2022-09-16T10:03:25.123Z,70.80
2022-09-16T10:06:34.180Z,69.40
2022-09-16T10:09:44.896Z,70.60
2022-09-16T10:12:47.392Z,75.00
2022-09-16T10:15:55.611Z,76.40
2022-09-16T10:19:00.906Z,79.30
2022-09-16T10:22:17.646Z,82.50
2022-09-16T10:25:26.541Z,82.80
2022-09-16T10:28:29.162Z,82.40
2022-09-16T10:31:37.802Z,82.80
2022-09-16T10:34:42.407Z,81.20
2022-09-16T10:37:57.125Z,83.10
2022-09-16T10:41:08.715Z,77.70
2022-09-16T10:44:18.781Z,76.50
2022-09-16T10:47:33.984Z,74.80
2022-09-16T10:50:36.134Z,69.90
2022-09-16T10:53:44.068Z,72.70
2022-09-16T10:56:50.574Z,73.10
2022-09-16T11:00:31.699Z,76.90
2022-09-16T11:03:59.225Z,77.70
2022-09-16T11:07:11.087Z,76.20
2022-09-16T11:10:23.482Z,74.20
2022-09-16T11:13:30.690Z,72.60
2022-09-16T11:16:54.706Z,69.40
2022-09-16T11:20:24.577Z,71.60
2022-09-16T11:23:47.644Z,73.90
2022-09-16T11:27:12.803Z,72.40
2022-09-16T11:30:18.528Z,74.10
2022-09-16T11:33:54.316Z,73.30
2022-09-16T11:37:14.498Z,73.30
2022-09-16T11:40:22.317Z,71.80
2022-09-16T11:43:36.257Z,73.30
2022-09-16T11:46:52.994Z,75.90
2022-09-16T11:50:05.850Z,75.90
2022-09-16T11:53:36.953Z,79.00
2022-09-16T11:56:54.654Z,81.10
2022-09-16T12:00:19.316Z,83.90
2022-09-16T12:03:45.122Z,85.20
2022-09-16T12:07:09.769Z,86.60
2022-09-16T12:10:31.043Z,89.40
2022-09-16T12:13:42.089Z,90.60
2022-09-16T12:16:49.771Z,91.10
2022-09-16T12:19:59.000Z,91.40
2022-09-16T12:23:14.826Z,91.10
2022-09-16T12:26:25.939Z,91.50
2022-09-16T12:29:51.255Z,91.80
2022-09-16T12:33:17.407Z,90.70
2022-09-16T12:36:27.204Z,91.00
2022-09-16T12:39:29.361Z,90.70
2022-09-16T12:42:53.741Z,90.40
2022-09-16T12:45:58.890Z,90.40
2022-09-16T12:49:20.652Z,90.40
2022-09-16T12:53:00.075Z,90.10
2022-09-16T12:56:29.254Z,90.50
2022-09-16T12:59:58.909Z,90.20
2022-09-16T13:03:26.704Z,90.70
2022-09-16T13:06:31.215Z,90.40
2022-09-16T13:09:38.951Z,89.80
2022-09-16T13:12:44.414Z,90.00
2022-09-16T13:15:59.972Z,89.60
2022-09-16T13:19:34.713Z,87.70
2022-09-16T13:22:45.986Z,88.50
2022-09-16T13:25:59.236Z,87.70
2022-09-16T13:29:01.361Z,87.90
2022-09-16T13:32:04.502Z,89.60
2022-09-16T13:35:18.973Z,90.20
2022-09-16T13:38:24.476Z,90.20
2022-09-16T13:41:45.638Z,90.20
2022-09-16T13:44:47.746Z,90.10
2022-09-16T13:47:51.305Z,90.00
2022-09-16T13:51:01.551Z,88.90
2022-09-16T13:54:04.996Z,89.00
2022-09-16T13:57:31.945Z,90.20
2022-09-16T14:01:03.792Z,90.60
2022-09-16T14:04:28.368Z,90.50
2022-09-16T14:07:36.049Z,91.40
2022-09-16T14:11:01.325Z,91.80
2022-09-16T14:14:30.014Z,91.70
2022-09-16T14:17:41.246Z,91.60
2022-09-16T14:21:22.435Z,91.40
2022-09-16T14:24:24.540Z,91.30
2022-09-16T14:27:36.764Z,91.00
2022-09-16T14:30:46.746Z,90.70
2022-09-16T14:33:56.326Z,90.80
2022-09-16T14:36:59.233Z,91.00
2022-09-16T14:40:13.147Z,90.80
2022-09-16T14:43:20.017Z,91.00
2022-09-16T14:46:22.506Z,91.00
2022-09-16T14:49:24.989Z,90.70
2022-09-16T14:52:29.911Z,91.20
2022-09-16T14:55:36.363Z,91.10
2022-09-16T14:58:38.584Z,91.40
2022-09-16T15:01:41.456Z,91.60
2022-09-16T15:04:46.845Z,91.70
2022-09-16T15:08:12.801Z,92.30
2022-09-16T15:12:46.715Z,92.40
2022-09-16T15:14:38.825Z,92.00
2022-09-16T15:17:43.279Z,92.20
2022-09-16T15:20:52.347Z,91.90
2022-09-16T15:23:59.144Z,92.20
2022-09-16T15:27:02.081Z,92.00
2022-09-16T15:30:20.774Z,92.00
2022-09-16T15:33:34.865Z,92.30
2022-09-16T15:36:41.159Z,92.30
2022-09-16T15:39:43.241Z,92.60
2022-09-16T15:42:46.020Z,92.50
2022-09-16T15:46:06.870Z,92.30
2022-09-16T15:49:16.488Z,91.90
2022-09-16T15:52:18.711Z,92.30
2022-09-16T15:55:54.179Z,92.20
2022-09-16T15:59:23.398Z,92.50
2022-09-16T16:02:52.034Z,92.70
2022-09-16T16:05:55.054Z,92.40
2022-09-16T16:08:58.287Z,92.50
2022-09-16T16:12:07.691Z,92.60
2022-09-16T16:15:09.872Z,92.60
2022-09-16T16:18:12.726Z,92.70
2022-09-16T16:21:16.781Z,92.70
2022-09-16T16:24:18.935Z,92.70
2022-09-16T16:27:20.955Z,92.80
2022-09-16T16:30:22.996Z,93.10
2022-09-16T16:33:25.023Z,93.20
2022-09-16T16:36:27.204Z,93.30
2022-09-16T16:39:29.403Z,93.10
2022-09-16T16:42:31.701Z,93.10
2022-09-16T16:45:33.716Z,93.60
2022-09-16T16:48:35.863Z,93.30
2022-09-16T16:51:37.935Z,93.20
2022-09-16T16:54:40.370Z,93.10
2022-09-16T16:57:42.751Z,92.90
2022-09-16T17:00:45.531Z,92.90
2022-09-16T17:03:50.100Z,93.00
2022-09-16T17:07:14.475Z,93.20
2022-09-16T17:10:20.365Z,93.40
2022-09-16T17:13:22.604Z,93.60
2022-09-16T17:16:25.814Z,93.50
2022-09-16T17:19:28.399Z,93.60
2022-09-16T17:22:32.322Z,93.80
2022-09-16T17:25:34.337Z,94.00
2022-09-16T17:28:40.514Z,94.10
2022-09-16T17:31:43.411Z,94.20
2022-09-16T17:34:45.557Z,94.40
2022-09-16T17:37:47.611Z,94.60
2022-09-16T17:40:49.684Z,94.60
2022-09-16T17:43:51.794Z,94.80
2022-09-16T17:46:53.923Z,94.60
2022-09-16T17:49:56.931Z,94.80
2022-09-16T17:52:58.983Z,95.00
2022-09-16T17:56:19.269Z,95.10
2022-09-16T17:59:21.292Z,95.10
2022-09-16T18:02:24.344Z,95.30
2022-09-16T18:05:29.964Z,95.40
2022-09-16T18:08:32.693Z,95.40
2022-09-16T18:11:36.314Z,95.90
2022-09-16T18:14:38.330Z,95.70
2022-09-16T18:17:40.425Z,96.10
2022-09-16T18:20:42.586Z,96.00
2022-09-16T18:23:45.681Z,96.10
2022-09-16T18:26:47.712Z,95.80
2022-09-16T18:29:49.711Z,95.90
2022-09-16T18:32:52.758Z,95.90
2022-09-16T18:36:03.130Z,96.10
2022-09-16T18:39:07.138Z,96.10
2022-09-16T18:42:09.010Z,96.20
2022-09-16T18:45:11.114Z,96.30
2022-09-16T18:48:13.131Z,96.40
2022-09-16T18:51:20.132Z,96.30
2022-09-16T18:54:29.993Z,96.40
2022-09-16T18:57:32.082Z,96.60
2022-09-16T19:00:35.053Z,96.50
2022-09-16T19:03:37.230Z,96.70
2022-09-16T19:06:41.486Z,96.50
2022-09-16T19:09:45.512Z,96.50
2022-09-16T19:12:48.255Z,96.90
2022-09-16T19:15:55.451Z,96.90
2022-09-16T19:18:57.783Z,96.90
2022-09-16T19:21:59.776Z,96.90
2022-09-16T19:25:01.902Z,96.90
2022-09-16T19:28:05.156Z,97.00
2022-09-16T19:31:09.687Z,96.90
2022-09-16T19:34:12.822Z,97.10
2022-09-16T19:37:15.827Z,97.30
2022-09-16T19:40:18.701Z,97.40
2022-09-16T19:43:20.766Z,97.10
2022-09-16T19:46:24.085Z,97.20
2022-09-16T19:49:27.098Z,97.30
2022-09-16T19:52:29.990Z,97.60
2022-09-16T19:55:32.176Z,97.40
2022-09-16T19:58:36.281Z,97.60
2022-09-16T20:01:38.844Z,97.60
2022-09-16T20:04:44.039Z,97.80
2022-09-16T20:07:50.616Z,98.00
2022-09-16T20:10:53.453Z,98.10
2022-09-16T20:14:05.845Z,98.10
2022-09-16T20:17:08.329Z,98.50
2022-09-16T20:20:10.589Z,98.60
2022-09-16T20:23:17.967Z,98.60
2022-09-16T20:26:21.256Z,99.00
2022-09-16T20:29:23.805Z,98.80
2022-09-16T20:32:25.870Z,99.00
2022-09-16T20:35:33.022Z,98.80
2022-09-16T20:38:37.077Z,99.30
2022-09-16T20:41:40.543Z,99.20
2022-09-16T20:44:46.390Z,99.40
2022-09-16T20:47:52.280Z,99.30
2022-09-16T20:50:55.661Z,99.50
2022-09-16T20:54:07.780Z,99.30
2022-09-16T20:57:11.768Z,99.30
2022-09-16T21:00:14.514Z,99.30
2022-09-16T21:03:16.505Z,99.30
2022-09-16T21:06:19.773Z,99.40
2022-09-16T21:09:22.228Z,99.80
2022-09-16T21:12:24.258Z,99.90
2022-09-16T21:15:26.411Z,99.90
2022-09-16T21:18:28.907Z,99.90
2022-09-16T21:21:32.098Z,99.90
2022-09-16T21:24:36.210Z,99.90
2022-09-16T21:27:39.516Z,99.90
2022-09-16T21:30:42.180Z,99.90
2022-09-16T21:33:45.505Z,99.90
2022-09-16T21:36:50.131Z,99.90
2022-09-16T21:39:52.499Z,99.90
2022-09-16T21:42:55.522Z,99.90
2022-09-16T21:45:58.325Z,99.90
2022-09-16T21:49:02.515Z,99.90
2022-09-16T21:52:04.481Z,99.90
2022-09-16T21:55:06.813Z,99.90
2022-09-16T21:58:09.292Z,99.90
2022-09-16T22:01:20.269Z,99.90
2022-09-16T22:04:25.306Z,99.90
2022-09-16T22:07:27.919Z,99.90
2022-09-16T22:10:31.130Z,99.90
2022-09-16T22:13:34.243Z,99.90
2022-09-16T22:16:37.988Z,99.90
2022-09-16T22:19:41.264Z,99.90
2022-09-16T22:22:43.343Z,99.90
2022-09-16T22:25:45.763Z,99.90
2022-09-16T22:28:49.320Z,99.90
2022-09-16T22:31:51.430Z,99.90
2022-09-16T22:34:53.461Z,99.90
2022-09-16T22:37:56.504Z,99.90
2022-09-16T22:41:10.023Z,99.90
2022-09-16T22:44:13.083Z,99.90
2022-09-16T22:47:16.324Z,99.90
2022-09-16T22:50:19.802Z,99.90
2022-09-16T22:53:22.315Z,99.90
2022-09-16T22:56:29.492Z,99.90
2022-09-16T22:59:34.951Z,99.90
2022-09-16T23:03:01.069Z,99.90
2022-09-16T23:06:05.994Z,99.90
2022-09-16T23:09:09.501Z,99.90
2022-09-16T23:12:11.761Z,99.90
2022-09-16T23:15:14.095Z,99.90
2022-09-16T23:18:18.834Z,99.90
2022-09-16T23:21:22.033Z,99.90
2022-09-16T23:24:24.137Z,99.90
2022-09-16T23:27:26.220Z,99.90
2022-09-16T23:30:28.239Z,99.90
2022-09-16T23:33:30.529Z,99.90
2022-09-16T23:36:33.088Z,99.90
2022-09-16T23:39:35.094Z,99.90
2022-09-16T23:42:37.215Z,99.90
2022-09-16T23:45:39.300Z,99.90
2022-09-16T23:48:43.213Z,99.90
2022-09-16T23:51:47.018Z,99.90
2022-09-16T23:54:49.161Z,99.90
2022-09-16T23:57:54.485Z,99.90
